createdAt,value
2019-02-12T00:00:00.360Z,20.20
2019-02-12T00:02:35.501Z,20.10
2019-02-12T00:05:14.542Z,20.10
2019-02-12T00:07:43.609Z,20.10
2019-02-12T00:10:14.984Z,20.10
2019-02-12T00:12:44.071Z,20.10
2019-02-12T00:15:18.791Z,20.00
2019-02-12T00:17:56.855Z,20.00
2019-02-12T00:20:28.740Z,20.00
2019-02-12T00:36:42.955Z,19.80
2019-02-12T00:39:15.790Z,19.70
2019-02-12T00:41:44.699Z,19.70
2019-02-12T00:49:49.380Z,19.70
2019-02-12T00:52:22.641Z,19.70
2019-02-12T00:55:31.432Z,19.70
2019-02-12T00:58:36.426Z,19.60
2019-02-12T01:01:07.108Z,19.60
2019-02-12T01:03:43.378Z,19.60
2019-02-12T01:06:29.144Z,19.60
2019-02-12T01:08:57.438Z,19.60
2019-02-12T01:11:36.419Z,19.70
2019-02-12T01:14:05.307Z,19.70
2019-02-12T01:16:34.237Z,19.70
2019-02-12T01:19:18.042Z,19.60
2019-02-12T01:21:48.979Z,19.60
2019-02-12T01:24:18.174Z,19.60
2019-02-12T01:26:47.372Z,19.60
2019-02-12T01:32:33.387Z,19.60
2019-02-12T01:35:03.063Z,19.60
2019-02-12T01:37:41.223Z,19.60
2019-02-12T01:40:16.720Z,19.60
2019-02-12T01:42:46.086Z,19.60
2019-02-12T01:45:20.535Z,19.50
2019-02-12T01:47:54.350Z,19.50
2019-02-12T01:50:25.204Z,19.50
2019-02-12T01:52:54.620Z,19.50
2019-02-12T01:55:24.181Z,19.40
2019-02-12T01:58:10.433Z,19.40
2019-02-12T02:00:39.366Z,19.40
2019-02-12T02:03:10.984Z,19.40
2019-02-12T02:05:42.633Z,19.40
2019-02-12T02:08:11.634Z,19.40
2019-02-12T02:10:44.189Z,19.40
2019-02-12T02:13:14.907Z,19.30
2019-02-12T02:16:06.109Z,19.30
2019-02-12T02:19:12.827Z,19.30
2019-02-12T02:21:28.609Z,19.30
2019-02-12T02:24:08.410Z,19.30
2019-02-12T02:26:45.006Z,19.20
2019-02-12T02:29:32.736Z,19.20
2019-02-12T02:32:01.958Z,19.20
2019-02-12T02:34:33.806Z,19.20
2019-02-12T02:40:13.079Z,19.10
2019-02-12T02:42:45.306Z,19.10
2019-02-12T02:45:46.869Z,19.10
2019-02-12T02:48:21.174Z,19.10
2019-02-12T02:50:50.633Z,19.10
2019-02-12T02:53:23.503Z,19.10
2019-02-12T02:55:54.839Z,18.80
2019-02-12T02:58:45.912Z,19.10
2019-02-12T03:01:34.536Z,19.00
2019-02-12T03:04:04.509Z,19.10
2019-02-12T03:06:47.230Z,19.10
2019-02-12T03:09:08.799Z,19.10
2019-02-12T03:11:38.892Z,19.10
2019-02-12T03:17:16.437Z,19.10
2019-02-12T03:19:45.470Z,19.10
2019-02-12T03:22:14.327Z,19.10
2019-02-12T03:27:42.609Z,19.10
2019-02-12T03:30:26.841Z,19.10
2019-02-12T03:32:58.644Z,19.00
2019-02-12T03:36:12.684Z,19.10
2019-02-12T03:38:50.117Z,19.10
2019-02-12T03:41:19.029Z,19.00
2019-02-12T03:43:50.258Z,19.00
2019-02-12T03:46:25.625Z,19.00
2019-02-12T03:49:04.320Z,19.00
2019-02-12T03:51:37.020Z,19.00
2019-02-12T03:54:06.382Z,19.00
2019-02-12T03:56:58.207Z,18.90
2019-02-12T03:59:27.079Z,18.90
2019-02-12T04:01:57.922Z,18.90
2019-02-12T04:04:29.900Z,18.80
2019-02-12T04:06:58.872Z,18.80
2019-02-12T04:09:27.787Z,18.80
2019-02-12T04:11:59.779Z,18.80
2019-02-12T04:14:32.242Z,18.80
2019-02-12T04:17:02.810Z,18.70
2019-02-12T04:19:57.470Z,18.70
2019-02-12T04:25:07.436Z,18.70
2019-02-12T04:27:38.418Z,18.70
2019-02-12T04:30:13.416Z,18.70
2019-02-12T04:33:06.116Z,18.70
2019-02-12T04:35:36.179Z,18.70
2019-02-12T04:38:06.059Z,18.70
2019-02-12T04:40:35.654Z,18.60
2019-02-12T04:43:16.060Z,18.60
2019-02-12T04:45:44.966Z,18.60
2019-02-12T04:48:41.139Z,18.60
2019-02-12T04:51:24.595Z,18.60
2019-02-12T04:53:53.565Z,18.60
2019-02-12T04:56:45.189Z,18.60
2019-02-12T04:59:14.721Z,18.60
2019-02-12T05:01:56.955Z,18.60
2019-02-12T05:04:30.528Z,18.60
2019-02-12T05:07:06.959Z,18.60
2019-02-12T05:09:37.753Z,18.60
2019-02-12T05:12:07.191Z,18.60
2019-02-12T05:14:44.104Z,18.60
2019-02-12T05:17:13.007Z,18.60
2019-02-12T05:19:42.619Z,18.60
2019-02-12T05:22:12.335Z,18.60
2019-02-12T05:24:44.233Z,18.60
2019-02-12T05:27:45.062Z,18.60
2019-02-12T05:30:36.498Z,18.60
2019-02-12T05:33:05.438Z,18.60
2019-02-12T05:35:53.672Z,18.60
2019-02-12T05:41:37.219Z,18.50
2019-02-12T05:44:06.160Z,18.50
2019-02-12T05:46:34.962Z,18.50
2019-02-12T05:49:07.442Z,18.50
2019-02-12T05:51:39.778Z,18.40
2019-02-12T05:54:09.264Z,18.40
2019-02-12T05:56:38.203Z,18.40
2019-02-12T05:59:08.472Z,18.40
2019-02-12T06:01:42.147Z,18.40
2019-02-12T06:04:21.687Z,18.40
2019-02-12T06:06:59.853Z,18.40
2019-02-12T06:09:31.087Z,18.40
2019-02-12T06:12:21.830Z,18.40
2019-02-12T06:14:51.029Z,18.40
2019-02-12T06:17:22.456Z,18.30
2019-02-12T06:20:25.895Z,18.40
2019-02-12T06:23:04.035Z,18.30
2019-02-12T06:25:33.403Z,18.30
2019-02-12T06:28:09.583Z,18.30
2019-02-12T06:30:45.871Z,18.30
2019-02-12T06:33:18.600Z,18.30
2019-02-12T06:35:47.723Z,18.30
2019-02-12T06:38:17.067Z,18.30
2019-02-12T06:40:47.196Z,18.20
2019-02-12T06:43:47.208Z,18.30
2019-02-12T06:46:16.113Z,18.30
2019-02-12T06:48:45.065Z,18.20
2019-02-12T06:51:15.027Z,18.30
2019-02-12T06:53:44.760Z,18.20
2019-02-12T06:56:13.906Z,18.20
2019-02-12T06:58:45.005Z,18.20
2019-02-12T07:01:13.957Z,18.30
2019-02-12T07:04:10.396Z,18.20
2019-02-12T07:07:07.673Z,18.20
2019-02-12T07:10:02.145Z,18.20
2019-02-12T07:13:03.263Z,18.30
2019-02-12T07:15:45.309Z,18.30
2019-02-12T07:18:42.011Z,18.30
2019-02-12T07:21:38.388Z,18.40
2019-02-12T07:25:02.428Z,18.50
2019-02-12T07:28:17.201Z,18.60
2019-02-12T07:31:43.915Z,18.70
2019-02-12T07:34:41.020Z,18.90
2019-02-12T07:37:46.961Z,19.10
2019-02-12T07:41:19.594Z,19.40
2019-02-12T07:44:41.479Z,19.60
2019-02-12T07:51:02.966Z,20.10
2019-02-12T07:54:17.621Z,20.30
2019-02-12T07:57:16.925Z,20.40
2019-02-12T08:00:18.074Z,20.60
2019-02-12T08:03:27.059Z,20.70
2019-02-12T08:06:49.776Z,20.80
2019-02-12T08:10:52.252Z,21.00
2019-02-12T08:13:29.229Z,21.10
2019-02-12T08:16:37.300Z,21.20
2019-02-12T08:19:37.506Z,21.30
2019-02-12T08:22:38.344Z,21.40
2019-02-12T08:25:47.636Z,21.50
2019-02-12T08:28:53.766Z,21.50
2019-02-12T08:32:00.906Z,21.50
2019-02-12T08:34:54.423Z,21.50
2019-02-12T08:40:54.891Z,21.40
2019-02-12T08:44:00.859Z,21.40
2019-02-12T08:46:58.936Z,21.50
2019-02-12T08:49:52.552Z,21.50
2019-02-12T08:52:48.674Z,21.70
2019-02-12T08:55:59.541Z,21.80
2019-02-12T08:58:58.624Z,21.90
2019-02-12T09:02:09.006Z,22.00
2019-02-12T09:05:34.117Z,22.10
2019-02-12T09:08:46.090Z,22.20
2019-02-12T09:11:53.001Z,22.30
2019-02-12T09:15:00.206Z,22.40
2019-02-12T09:18:01.950Z,22.50
2019-02-12T09:21:01.084Z,22.50
2019-02-12T09:24:09.063Z,22.50
2019-02-12T09:27:18.572Z,22.40
2019-02-12T09:30:26.419Z,22.40
2019-02-12T09:33:55.213Z,22.30
2019-02-12T09:37:13.291Z,22.40
2019-02-12T09:40:21.993Z,22.50
2019-02-12T09:43:36.529Z,22.60
2019-02-12T09:47:12.860Z,22.70
2019-02-12T09:50:34.228Z,22.80
2019-02-12T09:53:38.636Z,22.90
2019-02-12T09:56:20.911Z,22.90
2019-02-12T09:59:16.999Z,22.90
2019-02-12T10:02:11.695Z,22.90
2019-02-12T10:05:21.327Z,22.80
2019-02-12T10:08:41.148Z,22.70
2019-02-12T10:11:50.718Z,22.60
2019-02-12T10:14:31.107Z,22.50
2019-02-12T10:17:48.479Z,22.40
2019-02-12T10:20:55.489Z,22.30
2019-02-12T10:24:01.660Z,22.20
2019-02-12T10:26:30.879Z,22.10
2019-02-12T10:32:19.652Z,22.00
2019-02-12T10:35:01.286Z,21.90
2019-02-12T10:37:30.452Z,21.80
2019-02-12T10:40:06.598Z,21.70
2019-02-12T10:42:36.876Z,21.70
2019-02-12T10:45:06.808Z,21.60
2019-02-12T10:47:38.366Z,21.60
2019-02-12T10:50:13.831Z,21.60
2019-02-12T10:52:42.719Z,21.50
2019-02-12T10:55:15.604Z,21.50
2019-02-12T10:57:46.634Z,21.50
2019-02-12T11:00:16.163Z,21.50
2019-02-12T11:02:45.045Z,21.50
2019-02-12T11:05:26.107Z,21.50
2019-02-12T11:07:57.087Z,21.40
2019-02-12T11:10:47.554Z,21.40
2019-02-12T11:13:18.172Z,21.40
2019-02-12T11:16:11.410Z,21.40
2019-02-12T11:18:40.284Z,21.30
2019-02-12T11:21:30.213Z,21.30
2019-02-12T11:23:59.156Z,21.30
2019-02-12T11:26:30.453Z,21.30
2019-02-12T11:29:22.577Z,21.30
2019-02-12T11:31:51.611Z,21.30
2019-02-12T11:34:23.957Z,21.20
2019-02-12T11:36:53.708Z,21.20
2019-02-12T11:39:22.658Z,21.20
2019-02-12T11:41:51.701Z,21.10
2019-02-12T11:44:21.796Z,21.10
2019-02-12T11:47:00.173Z,21.10
2019-02-12T11:49:31.580Z,21.10
2019-02-12T11:52:00.737Z,21.00
2019-02-12T11:54:43.546Z,21.00
2019-02-12T11:57:08.173Z,21.00
2019-02-12T11:59:41.289Z,21.00
2019-02-12T12:02:27.623Z,21.00
2019-02-12T12:04:57.032Z,21.00
2019-02-12T12:07:49.532Z,20.90
2019-02-12T12:10:22.409Z,21.00
2019-02-12T12:13:07.736Z,20.90
2019-02-12T12:15:39.834Z,20.90
2019-02-12T12:18:08.926Z,21.00
2019-02-12T12:20:38.109Z,21.00
2019-02-12T12:23:07.230Z,20.90
2019-02-12T12:25:37.528Z,20.90
2019-02-12T12:28:09.747Z,20.90
2019-02-12T12:30:45.782Z,20.90
2019-02-12T12:33:14.831Z,20.90
2019-02-12T12:35:46.673Z,20.90
2019-02-12T12:38:15.495Z,20.90
2019-02-12T12:40:46.410Z,20.80
2019-02-12T12:43:21.334Z,20.80
2019-02-12T12:45:50.391Z,20.80
2019-02-12T12:48:22.976Z,20.90
2019-02-12T12:50:56.753Z,20.80
2019-02-12T12:53:46.019Z,20.80
2019-02-12T12:56:14.946Z,20.80
2019-02-12T13:01:23.639Z,20.70
2019-02-12T13:03:56.710Z,20.70
2019-02-12T13:07:00.686Z,20.70
2019-02-12T13:09:29.539Z,20.70
2019-02-12T13:12:25.767Z,20.70
2019-02-12T13:15:14.726Z,20.70
2019-02-12T13:17:50.644Z,20.70
2019-02-12T13:20:20.977Z,20.70
2019-02-12T13:22:50.650Z,20.70
2019-02-12T13:28:11.750Z,20.70
2019-02-12T13:30:46.891Z,20.70
2019-02-12T13:33:16.074Z,20.70
2019-02-12T13:36:13.370Z,20.70
2019-02-12T13:38:53.322Z,20.60
2019-02-12T13:41:31.952Z,20.60
2019-02-12T13:44:01.040Z,20.60
2019-02-12T13:46:45.540Z,20.60
2019-02-12T13:49:28.397Z,20.60
2019-02-12T13:51:59.786Z,20.60
2019-02-12T13:54:29.114Z,20.60
2019-02-12T13:57:00.403Z,20.60
2019-02-12T13:59:30.616Z,20.60
2019-02-12T14:01:59.763Z,20.60
2019-02-12T14:04:31.390Z,20.60
2019-02-12T14:07:01.026Z,20.60
2019-02-12T14:09:31.389Z,20.60
2019-02-12T14:12:01.547Z,20.60
2019-02-12T14:14:30.666Z,20.60
2019-02-12T14:16:59.729Z,20.60
2019-02-12T14:19:55.579Z,20.60
2019-02-12T14:22:25.871Z,20.60
2019-02-12T14:25:10.838Z,20.60
2019-02-12T14:27:42.062Z,20.60
2019-02-12T14:30:12.741Z,20.60
2019-02-12T14:33:28.781Z,20.60
2019-02-12T14:35:14.841Z,20.60
2019-02-12T14:41:04.551Z,20.60
2019-02-12T14:43:33.548Z,20.50
2019-02-12T14:46:03.300Z,20.50
2019-02-12T14:48:32.232Z,20.50
2019-02-12T14:51:08.511Z,20.50
2019-02-12T14:53:37.538Z,20.50
2019-02-12T14:56:14.517Z,20.40
2019-02-12T14:58:43.325Z,20.40
2019-02-12T15:01:13.268Z,20.40
2019-02-12T15:03:42.525Z,20.40
2019-02-12T15:06:19.008Z,20.40
2019-02-12T15:08:48.027Z,20.40
2019-02-12T15:11:18.936Z,20.30
2019-02-12T15:13:49.643Z,20.40
2019-02-12T15:16:20.282Z,20.40
2019-02-12T15:19:06.044Z,20.30
2019-02-12T15:21:39.467Z,20.30
2019-02-12T15:24:10.842Z,20.30
2019-02-12T15:26:43.240Z,20.30
2019-02-12T15:29:12.485Z,20.30
2019-02-12T15:31:48.748Z,20.30
2019-02-12T15:34:23.564Z,20.30
2019-02-12T15:36:53.351Z,20.30
2019-02-12T15:39:26.105Z,20.30
2019-02-12T15:42:15.149Z,20.30
2019-02-12T15:44:44.253Z,20.30
2019-02-12T15:47:34.050Z,20.30
2019-02-12T15:50:03.031Z,20.30
2019-02-12T15:53:02.026Z,20.30
2019-02-12T15:55:30.866Z,20.30
2019-02-12T16:00:59.883Z,20.30
2019-02-12T16:03:28.786Z,20.20
2019-02-12T16:06:07.402Z,20.20
2019-02-12T16:08:36.380Z,20.20
2019-02-12T16:11:24.565Z,20.20
2019-02-12T16:14:01.869Z,20.20
2019-02-12T16:16:35.619Z,20.20
2019-02-12T16:19:22.115Z,20.20
2019-02-12T16:21:53.610Z,20.10
2019-02-12T16:24:22.527Z,20.10
2019-02-12T16:26:54.496Z,20.10
2019-02-12T16:29:44.861Z,20.10
2019-02-12T16:32:13.519Z,20.10
2019-02-12T16:34:45.164Z,20.10
2019-02-12T16:37:14.476Z,20.10
2019-02-12T16:39:44.000Z,20.10
2019-02-12T16:42:27.012Z,20.00
2019-02-12T16:44:58.114Z,20.00
2019-02-12T16:50:21.884Z,20.00
2019-02-12T16:52:54.744Z,20.00
2019-02-12T16:59:59.589Z,20.00
2019-02-12T17:00:28.999Z,20.00
2019-02-12T17:09:59.092Z,19.90
2019-02-12T17:11:49.684Z,19.90
2019-02-12T17:14:18.728Z,19.90
2019-02-12T17:16:49.192Z,19.90
2019-02-12T17:19:18.059Z,19.80
2019-02-12T17:21:49.932Z,19.80
2019-02-12T17:24:19.070Z,19.90
2019-02-12T17:32:23.003Z,19.80
2019-02-12T17:34:52.058Z,19.90
2019-02-12T17:37:28.749Z,19.80
2019-02-12T17:39:57.576Z,19.80
2019-02-12T17:42:34.004Z,19.90
2019-02-12T17:45:11.635Z,19.80
2019-02-12T17:47:43.248Z,19.90
2019-02-12T17:50:13.306Z,19.90
2019-02-12T17:52:44.157Z,19.90
2019-02-12T17:55:16.007Z,19.90
2019-02-12T17:57:48.008Z,19.90
2019-02-12T18:00:28.460Z,19.90
2019-02-12T18:05:40.213Z,19.90
2019-02-12T18:08:10.077Z,19.90
2019-02-12T18:10:39.205Z,19.90
2019-02-12T18:13:10.319Z,19.90
2019-02-12T18:15:39.157Z,19.90
2019-02-12T18:18:20.577Z,20.00
2019-02-12T18:20:49.668Z,20.10
2019-02-12T18:23:18.919Z,20.20
2019-02-12T18:26:09.086Z,20.40
2019-02-12T18:28:33.439Z,20.70
2019-02-12T18:31:02.700Z,20.90
2019-02-12T18:33:33.081Z,21.10
2019-02-12T18:39:05.130Z,21.40
2019-02-12T18:41:35.271Z,21.50
2019-02-12T18:44:07.851Z,21.70
2019-02-12T18:46:46.947Z,21.80
2019-02-12T18:54:37.428Z,22.60
2019-02-12T19:06:52.026Z,23.50
2019-02-12T19:09:30.196Z,23.60
2019-02-12T19:12:00.549Z,23.50
2019-02-12T19:14:32.364Z,23.60
2019-02-12T19:19:43.844Z,23.70
2019-02-12T19:22:16.760Z,23.70
2019-02-12T19:24:47.808Z,23.70
2019-02-12T19:27:17.567Z,23.70
2019-02-12T19:29:46.628Z,23.70
2019-02-12T19:32:16.289Z,23.70
2019-02-12T19:34:45.108Z,23.90
2019-02-12T19:37:14.599Z,24.00
2019-02-12T19:39:59.037Z,24.00
2019-02-12T19:42:29.011Z,24.10
2019-02-12T19:45:18.748Z,24.20
2019-02-12T20:01:14.784Z,24.00
2019-02-12T20:03:51.045Z,23.90
2019-02-12T20:06:21.384Z,23.90
2019-02-12T20:12:02.222Z,23.80
2019-02-12T20:14:31.809Z,23.70
2019-02-12T20:17:03.204Z,23.70
2019-02-12T20:19:32.174Z,23.60
2019-02-12T20:22:09.553Z,23.60
2019-02-12T20:24:44.533Z,23.50
2019-02-12T20:27:18.251Z,23.40
2019-02-12T20:30:04.284Z,23.30
2019-02-12T20:32:38.423Z,23.20
2019-02-12T20:35:23.837Z,23.20
2019-02-12T20:37:52.928Z,23.20
2019-02-12T20:40:24.297Z,23.20
2019-02-12T20:42:53.239Z,23.30
2019-02-12T20:45:22.492Z,23.40
2019-02-12T20:47:53.540Z,23.50
2019-02-12T20:50:25.233Z,23.60
2019-02-12T20:53:02.211Z,23.70
2019-02-12T20:55:31.202Z,23.90
2019-02-12T20:58:11.052Z,24.00
2019-02-12T21:00:46.586Z,24.00
2019-02-12T21:03:17.784Z,24.10
2019-02-12T21:05:47.044Z,24.10
2019-02-12T21:08:34.501Z,24.00
2019-02-12T21:11:22.414Z,23.90
2019-02-12T21:14:09.811Z,23.90
2019-02-12T21:16:40.588Z,23.90
2019-02-12T21:19:13.247Z,23.80
2019-02-12T21:21:52.440Z,23.70
2019-02-12T21:27:09.635Z,23.60
2019-02-12T21:30:02.112Z,23.50
2019-02-12T21:32:42.474Z,23.40
2019-02-12T21:35:14.667Z,23.40
2019-02-12T21:37:43.800Z,23.30
2019-02-12T21:40:19.237Z,23.20
2019-02-12T21:42:54.371Z,23.10
2019-02-12T21:45:25.941Z,23.10
2019-02-12T21:48:03.855Z,23.00
2019-02-12T21:50:36.608Z,22.90
2019-02-12T21:53:07.328Z,22.90
2019-02-12T21:55:44.292Z,23.00
2019-02-12T21:58:24.111Z,23.00
2019-02-12T22:00:59.197Z,23.10
2019-02-12T22:03:28.427Z,23.20
2019-02-12T22:08:41.337Z,23.50
2019-02-12T22:11:16.101Z,23.60
2019-02-12T22:14:18.863Z,23.70
2019-02-12T22:19:55.061Z,23.70
2019-02-12T22:22:24.127Z,23.70
2019-02-12T22:25:07.074Z,23.60
2019-02-12T22:27:40.455Z,23.60
2019-02-12T22:30:34.409Z,23.50
2019-02-12T22:33:05.100Z,23.40
2019-02-12T22:35:37.002Z,23.30
2019-02-12T22:38:06.076Z,23.20
2019-02-12T22:40:37.096Z,23.20
2019-02-12T22:43:06.605Z,23.10
2019-02-12T22:45:46.275Z,23.10
2019-02-12T22:48:08.415Z,23.00
2019-02-12T22:50:37.320Z,22.90
2019-02-12T22:53:15.015Z,22.90
2019-02-12T22:55:44.308Z,22.80
2019-02-12T23:01:27.215Z,22.70
2019-02-12T23:03:58.049Z,22.60
2019-02-12T23:06:27.051Z,22.60
2019-02-12T23:08:56.124Z,22.50
2019-02-12T23:11:26.653Z,22.50
2019-02-12T23:13:55.622Z,22.40
2019-02-12T23:16:24.611Z,22.40
2019-02-12T23:19:04.429Z,22.30
2019-02-12T23:21:38.966Z,22.30
2019-02-12T23:24:12.324Z,22.20
2019-02-12T23:26:41.375Z,22.20
2019-02-12T23:29:18.287Z,22.20
2019-02-12T23:31:56.308Z,22.10
2019-02-12T23:34:25.371Z,22.00
2019-02-12T23:37:25.620Z,22.00
2019-02-12T23:39:56.952Z,22.00
2019-02-12T23:42:27.619Z,21.90
2019-02-12T23:44:57.240Z,21.90
2019-02-12T23:47:28.887Z,21.80
2019-02-12T23:50:02.504Z,21.80
2019-02-12T23:52:32.357Z,21.80
2019-02-12T23:55:07.172Z,21.70
2019-02-12T23:57:36.156Z,21.70
